Time;durP1;ratioP1;P1;durP2;ratioP2;P2;SDS_P1;SDS_P2;PMS_P1;PMS_P2;Temp;Humidity;BMP_temperature;BMP_pressure;BME280_temperature;BME280_humidity;BME280_pressure;Samples;Min_cycle;Max_cycle;Signal;HPM_P1;HPM_P2
2021/01/21 00:02:55;;;;;;;11.63;7.40;;;;;;;;;;5056965;28;20611;-73
2021/01/21 00:06:00;;;;;;;11.87;7.50;;;;;;;;;;5043874;28;20657;-73
2021/01/21 00:09:04;;;;;;;10.33;6.53;;;;;;;;;;5056365;28;21163;-73
2021/01/21 00:12:09;;;;;;;10.47;7.07;;;;;;;;;;5056376;28;20622;-73
2021/01/21 00:15:13;;;;;;;10.50;7.73;;;;;;;;;;5056658;28;20539;-73
2021/01/21 00:18:17;;;;;;;12.23;7.37;;;;;;;;;;5056152;28;20648;-73
2021/01/21 00:21:22;;;;;;;10.93;6.83;;;;;;;;;;5056108;28;20634;-73
2021/01/21 00:24:26;;;;;;;13.93;7.77;;;;;;;;;;5056722;28;21119;-73
2021/01/21 00:27:30;;;;;;;12.63;8.20;;;;;;;;;;5056064;28;21178;-73
2021/01/21 00:30:34;;;;;;;12.00;7.87;;;;;;;;;;5056237;28;20546;-73
2021/01/21 00:33:39;;;;;;;13.97;7.63;;;;;;;;;;5023835;28;20595;-73
2021/01/21 00:36:43;;;;;;;10.03;7.50;;;;;;;;;;5049034;28;20617;-73
2021/01/21 00:39:47;;;;;;;10.90;7.73;;;;;;;;;;5055856;28;20547;-73
2021/01/21 00:42:51;;;;;;;10.90;7.83;;;;;;;;;;5056081;28;20535;-73
2021/01/21 00:45:56;;;;;;;10.97;8.77;;;;;;;;;;5032127;28;20970;-73
2021/01/21 00:49:00;;;;;;;10.33;7.57;;;;;;;;;;5043453;28;20970;-73
2021/01/21 00:52:05;;;;;;;14.87;9.30;;;;;;;;;;5029291;28;21254;-73
2021/01/21 00:55:09;;;;;;;13.30;8.40;;;;;;;;;;5055855;28;20543;-73
2021/01/21 00:58:14;;;;;;;11.37;8.07;;;;;;;;;;5043708;28;20535;-73
2021/01/21 01:01:18;;;;;;;11.50;8.07;;;;;;;;;;5055328;28;20654;-73
2021/01/21 01:04:23;;;;;;;13.17;8.50;;;;;;;;;;5055298;28;20594;-73
2021/01/21 01:07:30;;;;;;;14.17;8.10;;;;;;;;;;5031279;28;20638;-73
2021/01/21 01:10:34;;;;;;;12.50;7.53;;;;;;;;;;5031498;28;20602;-73
2021/01/21 01:13:48;;;;;;;11.73;8.13;;;;;;;;;;5043222;28;20550;-73
2021/01/21 01:16:52;;;;;;;12.47;8.50;;;;;;;;;;5042857;28;20586;-75
2021/01/21 01:19:57;;;;;;;15.97;9.33;;;;;;;;;;5043144;28;20602;-73
2021/01/21 01:23:01;;;;;;;14.80;9.23;;;;;;;;;;5054947;28;20591;-73
2021/01/21 01:26:10;;;;;;;12.50;8.20;;;;;;;;;;5042842;28;21089;-73
2021/01/21 01:29:16;;;;;;;14.07;8.90;;;;;;;;;;5031271;28;20551;-72
2021/01/21 01:32:22;;;;;;;16.03;9.27;;;;;;;;;;5041703;28;21251;-73
2021/01/21 01:35:30;;;;;;;15.27;9.07;;;;;;;;;;5042677;28;20535;-73
2021/01/21 01:38:34;;;;;;;13.73;8.97;;;;;;;;;;5023284;28;20599;-73
2021/01/21 01:41:58;;;;;;;12.67;9.27;;;;;;;;;;5034930;28;20619;-72
2021/01/21 01:45:05;;;;;;;11.43;8.43;;;;;;;;;;5042295;28;20596;-73
2021/01/21 01:48:09;;;;;;;14.80;9.17;;;;;;;;;;5030580;28;20630;-73
2021/01/21 01:51:19;;;;;;;15.33;9.27;;;;;;;;;;5031263;28;21006;-73
2021/01/21 01:54:24;;;;;;;12.80;8.77;;;;;;;;;;5042339;28;20551;-73
2021/01/21 01:57:34;;;;;;;15.47;9.43;;;;;;;;;;5032024;28;20539;-73
2021/01/21 02:00:49;;;;;;;12.27;8.47;;;;;;;;;;5022656;28;20615;-73
2021/01/21 02:03:53;;;;;;;13.80;9.03;;;;;;;;;;5022741;28;20595;-73
2021/01/21 02:07:18;;;;;;;14.63;9.73;;;;;;;;;;5034479;28;20662;-73
2021/01/21 02:10:31;;;;;;;20.53;9.83;;;;;;;;;;5030324;28;20591;-73
2021/01/21 02:14:07;;;;;;;13.27;9.47;;;;;;;;;;5041692;28;20985;-73
2021/01/21 02:17:19;;;;;;;15.53;8.90;;;;;;;;;;5040991;28;20551;-73
2021/01/21 02:20:49;;;;;;;14.93;9.63;;;;;;;;;;5030365;28;20607;-73
2021/01/21 02:24:13;;;;;;;16.67;9.83;;;;;;;;;;5042190;28;20539;-73
2021/01/21 02:27:29;;;;;;;13.47;8.90;;;;;;;;;;5041302;28;20630;-73
2021/01/21 02:30:49;;;;;;;13.20;8.70;;;;;;;;;;5030653;28;20547;-73
2021/01/21 02:33:56;;;;;;;14.70;8.63;;;;;;;;;;5053968;28;20543;-73
2021/01/21 02:37:03;;;;;;;12.37;8.60;;;;;;;;;;5034325;28;20528;-73
2021/01/21 02:40:42;;;;;;;11.20;8.13;;;;;;;;;;5045972;28;21007;-73
2021/01/21 02:43:53;;;;;;;12.73;8.23;;;;;;;;;;5031319;28;20894;-73
2021/01/21 02:47:00;;;;;;;12.93;8.53;;;;;;;;;;5053532;28;20611;-73
2021/01/21 02:50:07;;;;;;;12.70;8.63;;;;;;;;;;5041487;28;20552;-73
2021/01/21 02:53:11;;;;;;;11.30;8.37;;;;;;;;;;5054075;28;20543;-73
2021/01/21 02:56:20;;;;;;;12.97;8.10;;;;;;;;;;5021750;28;20560;-73
2021/01/21 02:59:37;;;;;;;11.53;8.37;;;;;;;;;;5033346;28;20590;-73
2021/01/21 03:02:48;;;;;;;14.97;7.60;;;;;;;;;;5040498;28;20590;-73
2021/01/21 03:05:55;;;;;;;13.73;7.93;;;;;;;;;;5010264;28;20540;-73
2021/01/21 03:09:01;;;;;;;12.40;7.70;;;;;;;;;;5021349;28;20596;-73
2021/01/21 03:12:22;;;;;;;11.77;8.13;;;;;;;;;;5021330;28;20622;-73
2021/01/21 03:15:28;;;;;;;15.80;8.40;;;;;;;;;;5029727;28;20539;-73
2021/01/21 03:18:42;;;;;;;11.57;7.90;;;;;;;;;;5021541;28;20536;-73
2021/01/21 03:21:48;;;;;;;11.77;8.10;;;;;;;;;;5021012;28;20635;-73
2021/01/21 03:24:58;;;;;;;14.03;8.33;;;;;;;;;;5032562;28;20540;-73
2021/01/21 03:28:10;;;;;;;12.97;7.87;;;;;;;;;;5032165;28;20647;-73
2021/01/21 03:31:15;;;;;;;13.07;8.00;;;;;;;;;;5033122;28;21223;-73
2021/01/21 03:34:20;;;;;;;12.50;8.17;;;;;;;;;;5040636;28;20961;-73
2021/01/21 03:37:34;;;;;;;11.40;7.53;;;;;;;;;;5038665;28;20571;-73
2021/01/21 03:40:40;;;;;;;13.27;8.47;;;;;;;;;;5040826;28;20626;-73
2021/01/21 03:43:45;;;;;;;11.03;7.83;;;;;;;;;;5040514;28;20559;-73
2021/01/21 03:47:08;;;;;;;13.10;8.27;;;;;;;;;;5020957;28;20556;-73
2021/01/21 03:50:25;;;;;;;12.97;8.20;;;;;;;;;;5033318;28;20544;-73
2021/01/21 03:53:29;;;;;;;16.03;9.03;;;;;;;;;;5040459;28;21179;-72
2021/01/21 03:56:48;;;;;;;12.63;7.57;;;;;;;;;;5029165;28;20591;-73
2021/01/21 03:59:55;;;;;;;12.80;8.00;;;;;;;;;;5040754;28;20544;-73
2021/01/21 04:03:00;;;;;;;15.10;8.77;;;;;;;;;;5021114;28;20547;-73
2021/01/21 04:06:17;;;;;;;11.80;8.20;;;;;;;;;;5042160;28;20591;-73
2021/01/21 04:09:22;;;;;;;15.43;8.93;;;;;;;;;;5029337;28;20655;-73
2021/01/21 04:12:37;;;;;;;10.37;7.90;;;;;;;;;;5040217;28;20610;-73
2021/01/21 04:15:42;;;;;;;12.50;7.90;;;;;;;;;;5040050;28;20590;-73
2021/01/21 04:18:46;;;;;;;12.77;8.30;;;;;;;;;;5040249;28;20551;-73
2021/01/21 04:21:51;;;;;;;12.30;8.80;;;;;;;;;;5054516;22;20682;-73
2021/01/21 04:25:00;;;;;;;11.60;7.80;;;;;;;;;;5020730;28;20879;-72
2021/01/21 04:28:13;;;;;;;12.87;8.40;;;;;;;;;;5033734;28;20604;-72
2021/01/21 04:31:20;;;;;;;16.37;8.73;;;;;;;;;;5040143;28;20618;-73
2021/01/21 04:34:24;;;;;;;12.73;8.37;;;;;;;;;;5028678;28;20594;-72
2021/01/21 04:37:29;;;;;;;12.97;7.30;;;;;;;;;;5028761;28;20949;-73
2021/01/21 04:40:47;;;;;;;11.10;7.80;;;;;;;;;;5040599;28;21203;-73
2021/01/21 04:44:10;;;;;;;14.27;7.87;;;;;;;;;;5055677;28;20596;-73
2021/01/21 04:47:27;;;;;;;11.53;7.80;;;;;;;;;;5043324;28;20622;-73
2021/01/21 04:50:50;;;;;;;12.63;8.30;;;;;;;;;;5043407;28;21148;-73
2021/01/21 04:54:04;;;;;;;11.03;7.50;;;;;;;;;;5043362;28;20586;-72
2021/01/21 04:57:45;;;;;;;13.73;7.80;;;;;;;;;;5035706;28;20543;-73
2021/01/21 05:00:56;;;;;;;10.77;7.67;;;;;;;;;;5030583;28;20650;-73
2021/01/21 05:04:01;;;;;;;13.63;7.30;;;;;;;;;;5043485;28;20531;-73
2021/01/21 05:07:41;;;;;;;10.00;6.73;;;;;;;;;;5035873;28;20677;-72
2021/01/21 05:10:51;;;;;;;10.10;7.10;;;;;;;;;;5043004;28;20670;-72
2021/01/21 05:14:01;;;;;;;14.80;8.33;;;;;;;;;;5043015;28;20547;-72
2021/01/21 05:17:40;;;;;;;10.90;7.27;;;;;;;;;;5055248;28;20539;-72
2021/01/21 05:21:21;;;;;;;12.43;7.37;;;;;;;;;;5054988;28;20649;-72
2021/01/21 05:24:49;;;;;;;9.63;6.77;;;;;;;;;;5023258;28;20544;-72
2021/01/21 05:28:13;;;;;;;10.97;7.87;;;;;;;;;;5022880;28;20588;-72
2021/01/21 05:31:47;;;;;;;12.20;7.97;;;;;;;;;;5037586;28;20620;-72
2021/01/21 05:34:52;;;;;;;12.13;7.77;;;;;;;;;;5023096;28;20540;-72
2021/01/21 05:38:08;;;;;;;14.03;7.77;;;;;;;;;;5026368;28;20583;-71
2021/01/21 05:41:34;;;;;;;12.00;7.73;;;;;;;;;;5053419;28;20647;-71
2021/01/21 05:45:11;;;;;;;13.73;7.90;;;;;;;;;;5031475;28;20622;-71
2021/01/21 05:48:35;;;;;;;13.37;8.50;;;;;;;;;;5060566;28;20587;-72
2021/01/21 05:51:42;;;;;;;11.50;7.67;;;;;;;;;;5041997;28;20993;-73
2021/01/21 05:54:57;;;;;;;11.60;6.70;;;;;;;;;;5022732;28;20900;-72
2021/01/21 05:58:30;;;;;;;10.47;6.63;;;;;;;;;;5024653;28;21183;-72
2021/01/21 06:01:34;;;;;;;11.13;7.67;;;;;;;;;;5054139;28;20646;-71
2021/01/21 06:04:40;;;;;;;12.40;8.07;;;;;;;;;;5042104;28;20583;-71
2021/01/21 06:07:49;;;;;;;11.57;7.13;;;;;;;;;;5041681;28;20994;-71
2021/01/21 06:10:55;;;;;;;12.07;7.17;;;;;;;;;;5030596;28;20626;-71
2021/01/21 06:14:00;;;;;;;13.27;7.00;;;;;;;;;;5053456;28;20551;-72
2021/01/21 06:17:05;;;;;;;10.17;7.23;;;;;;;;;;5041525;28;20583;-71
2021/01/21 06:20:19;;;;;;;9.73;6.30;;;;;;;;;;5041202;28;20611;-71
2021/01/21 06:23:32;;;;;;;11.33;7.17;;;;;;;;;;5041231;28;20607;-72
2021/01/21 06:26:51;;;;;;;11.23;6.73;;;;;;;;;;5041965;28;21073;-71
2021/01/21 06:29:57;;;;;;;13.33;6.93;;;;;;;;;;5053481;28;21009;-71
2021/01/21 06:33:11;;;;;;;9.43;6.53;;;;;;;;;;5053761;28;20595;-71
2021/01/21 06:36:20;;;;;;;20.10;10.90;;;;;;;;;;5045560;28;20965;-71
2021/01/21 06:39:32;;;;;;;11.63;7.13;;;;;;;;;;5053800;28;20562;-71
2021/01/21 06:42:41;;;;;;;11.23;7.50;;;;;;;;;;5053537;28;20614;-71
2021/01/21 06:45:46;;;;;;;14.93;8.00;;;;;;;;;;5033614;28;20544;-71
2021/01/21 06:48:51;;;;;;;10.87;7.27;;;;;;;;;;5042656;28;20639;-71
2021/01/21 06:51:56;;;;;;;11.27;7.40;;;;;;;;;;5053743;28;21194;-71
2021/01/21 06:55:02;;;;;;;11.77;7.20;;;;;;;;;;5029719;28;20587;-71
2021/01/21 06:58:07;;;;;;;11.17;7.67;;;;;;;;;;5053186;28;21132;-70
2021/01/21 07:01:34;;;;;;;11.70;7.47;;;;;;;;;;5033400;28;20646;-71
2021/01/21 07:04:38;;;;;;;11.80;7.50;;;;;;;;;;5052579;28;20575;-70
2021/01/21 07:08:00;;;;;;;9.20;6.53;;;;;;;;;;5053523;28;20887;-70
2021/01/21 07:11:05;;;;;;;11.00;6.00;;;;;;;;;;5053377;28;20623;-71
2021/01/21 07:14:10;;;;;;;8.00;5.50;;;;;;;;;;5053695;28;20539;-71
2021/01/21 07:17:15;;;;;;;9.77;5.13;;;;;;;;;;5041055;28;21136;-70
2021/01/21 07:20:20;;;;;;;9.80;5.73;;;;;;;;;;5053544;28;21069;-70
2021/01/21 07:23:54;;;;;;;5.93;4.50;;;;;;;;;;5053072;28;20618;-71
2021/01/21 07:27:01;;;;;;;6.73;4.40;;;;;;;;;;5053344;28;20551;-71
2021/01/21 07:30:23;;;;;;;8.23;5.60;;;;;;;;;;5053128;28;20642;-71
2021/01/21 07:33:27;;;;;;;10.80;5.97;;;;;;;;;;5040947;28;20543;-71
2021/01/21 07:36:32;;;;;;;10.83;7.00;;;;;;;;;;5052907;28;20543;-71
2021/01/21 07:39:55;;;;;;;9.07;5.80;;;;;;;;;;5040789;28;20598;-71
2021/01/21 07:42:59;;;;;;;7.97;6.03;;;;;;;;;;5028624;28;21124;-70
2021/01/21 07:46:24;;;;;;;6.13;4.97;;;;;;;;;;5052685;28;20559;-71
2021/01/21 07:49:28;;;;;;;10.17;6.93;;;;;;;;;;5052423;28;20623;-71
2021/01/21 07:52:39;;;;;;;14.67;7.60;;;;;;;;;;5040647;28;20625;-71
2021/01/21 07:55:44;;;;;;;13.17;6.47;;;;;;;;;;5040460;28;20551;-71
2021/01/21 07:58:59;;;;;;;12.13;7.20;;;;;;;;;;5053239;28;20535;-71
2021/01/21 08:02:03;;;;;;;10.67;7.23;;;;;;;;;;5052848;28;20622;-71
2021/01/21 08:05:09;;;;;;;15.83;8.60;;;;;;;;;;5053304;28;20907;-71
2021/01/21 08:08:12;;;;;;;8.40;5.50;;;;;;;;;;5052938;28;20543;-71
2021/01/21 08:11:22;;;;;;;7.23;4.43;;;;;;;;;;5040527;28;20606;-71
2021/01/21 08:14:31;;;;;;;6.80;4.40;;;;;;;;;;5052951;28;20543;-70
2021/01/21 08:17:37;;;;;;;9.60;5.40;;;;;;;;;;5056413;28;20551;-70
2021/01/21 08:20:41;;;;;;;7.10;4.70;;;;;;;;;;5055424;28;20630;-70
2021/01/21 08:24:02;;;;;;;13.33;8.63;;;;;;;;;;5056161;28;20609;-70
2021/01/21 08:27:06;;;;;;;17.30;10.00;;;;;;;;;;5056263;28;20555;-70
2021/01/21 08:30:27;;;;;;;15.90;10.07;;;;;;;;;;5056300;28;21005;-70
2021/01/21 08:33:33;;;;;;;18.17;11.00;;;;;;;;;;5056658;28;20543;-70
2021/01/21 08:36:38;;;;;;;14.57;9.20;;;;;;;;;;5043353;28;20586;-70
2021/01/21 08:39:42;;;;;;;11.73;7.33;;;;;;;;;;5041750;28;20574;-71
2021/01/21 08:42:48;;;;;;;12.10;8.00;;;;;;;;;;5053902;28;20582;-71
2021/01/21 08:45:52;;;;;;;12.90;8.13;;;;;;;;;;5055495;28;20571;-71
2021/01/21 08:49:09;;;;;;;11.60;8.20;;;;;;;;;;5056233;28;20590;-70
2021/01/21 08:52:13;;;;;;;13.00;8.13;;;;;;;;;;5048170;28;20986;-70
2021/01/21 08:55:17;;;;;;;12.73;7.33;;;;;;;;;;5035914;28;20548;-70
2021/01/21 08:58:32;;;;;;;12.10;7.80;;;;;;;;;;5048959;28;20574;-70
2021/01/21 09:01:43;;;;;;;8.00;7.00;;;;;;;;;;5055715;28;20618;-70
2021/01/21 09:05:03;;;;;;;11.27;7.07;;;;;;;;;;5035597;28;20540;-70
2021/01/21 09:08:08;;;;;;;11.97;7.23;;;;;;;;;;5036044;28;20197;-71
2021/01/21 09:11:37;;;;;;;11.60;7.83;;;;;;;;;;5023193;28;20755;-71
2021/01/21 09:14:42;;;;;;;11.10;7.50;;;;;;;;;;5035406;28;20176;-71
2021/01/21 09:18:03;;;;;;;18.70;10.27;;;;;;;;;;5035350;28;20517;-71
2021/01/21 09:21:14;;;;;;;11.33;8.07;;;;;;;;;;5035207;28;20217;-71
2021/01/21 09:24:18;;;;;;;10.07;7.13;;;;;;;;;;5035444;28;20188;-71
2021/01/21 09:27:22;;;;;;;9.70;6.50;;;;;;;;;;5022940;28;20180;-71
2021/01/21 09:30:27;;;;;;;12.40;8.73;;;;;;;;;;5023002;28;20213;-71
2021/01/21 09:33:31;;;;;;;8.57;6.60;;;;;;;;;;5035004;28;20180;-71
2021/01/21 09:36:35;;;;;;;10.37;5.50;;;;;;;;;;5023078;28;20200;-71
2021/01/21 09:39:39;;;;;;;9.37;6.07;;;;;;;;;;5049903;28;20651;-71
2021/01/21 09:42:43;;;;;;;9.27;6.60;;;;;;;;;;5042543;28;20184;-71
2021/01/21 09:45:48;;;;;;;8.60;5.90;;;;;;;;;;5034759;28;20200;-71
2021/01/21 09:48:52;;;;;;;7.77;5.87;;;;;;;;;;5054129;28;20662;-71
2021/01/21 09:51:56;;;;;;;14.00;7.80;;;;;;;;;;5054838;28;20698;-71
2021/01/21 09:55:01;;;;;;;24.00;14.03;;;;;;;;;;5034969;28;20635;-72
2021/01/21 09:58:05;;;;;;;27.03;15.47;;;;;;;;;;5050524;28;20192;-72
2021/01/21 10:01:09;;;;;;;32.73;19.03;;;;;;;;;;5032062;28;20211;-72
2021/01/21 10:04:14;;;;;;;19.60;11.27;;;;;;;;;;5054291;28;20192;-72
2021/01/21 10:07:19;;;;;;;21.10;11.60;;;;;;;;;;5030760;28;20192;-72
2021/01/21 10:10:23;;;;;;;21.13;11.10;;;;;;;;;;5054374;28;20204;-72
2021/01/21 10:13:27;;;;;;;12.73;8.97;;;;;;;;;;5034834;28;20181;-72
2021/01/21 10:16:31;;;;;;;12.90;8.00;;;;;;;;;;5052581;28;20543;-72
2021/01/21 10:19:36;;;;;;;15.80;7.40;;;;;;;;;;5054134;28;20184;-72
2021/01/21 10:22:40;;;;;;;9.23;5.63;;;;;;;;;;5050823;22;20225;-73
2021/01/21 10:25:44;;;;;;;12.43;6.27;;;;;;;;;;5047943;28;20180;-73
2021/01/21 10:28:49;;;;;;;12.97;5.43;;;;;;;;;;5054103;28;20176;-73
2021/01/21 10:31:53;;;;;;;6.10;4.50;;;;;;;;;;5054432;28;20208;-74
2021/01/21 10:34:57;;;;;;;5.83;4.47;;;;;;;;;;5049938;28;20554;-72
2021/01/21 10:38:02;;;;;;;7.93;4.20;;;;;;;;;;5033530;28;20181;-74
2021/01/21 10:41:07;;;;;;;8.90;5.27;;;;;;;;;;5039670;28;20591;-72
2021/01/21 10:44:11;;;;;;;7.03;4.73;;;;;;;;;;5035354;28;20193;-74
2021/01/21 10:47:15;;;;;;;6.90;3.70;;;;;;;;;;5043780;28;20196;-73
2021/01/21 10:50:19;;;;;;;5.83;3.23;;;;;;;;;;5048538;28;20224;-72
2021/01/21 10:53:24;;;;;;;6.43;4.70;;;;;;;;;;5033560;28;20563;-71
2021/01/21 10:56:29;;;;;;;5.80;3.40;;;;;;;;;;5033872;28;20200;-72
2021/01/21 10:59:33;;;;;;;41.90;33.30;;;;;;;;;;5010216;28;20173;-72
2021/01/21 11:02:37;;;;;;;30.53;17.33;;;;;;;;;;5048160;28;20226;-71
2021/01/21 11:05:42;;;;;;;32.60;19.27;;;;;;;;;;5034866;28;20674;-71
2021/01/21 11:08:46;;;;;;;13.23;8.23;;;;;;;;;;5001883;28;20189;-72
2021/01/21 11:11:50;;;;;;;7.70;5.20;;;;;;;;;;5032928;28;20216;-71
2021/01/21 11:14:54;;;;;;;7.47;4.30;;;;;;;;;;5021593;28;20177;-72
2021/01/21 11:17:59;;;;;;;4.77;3.53;;;;;;;;;;5013637;28;20181;-72
2021/01/21 11:21:03;;;;;;;6.30;4.10;;;;;;;;;;5027559;28;20213;-71
2021/01/21 11:24:08;;;;;;;6.43;3.87;;;;;;;;;;5033059;28;20204;-72
2021/01/21 11:27:12;;;;;;;5.93;4.00;;;;;;;;;;5040993;28;20184;-71
2021/01/21 11:30:17;;;;;;;6.00;3.90;;;;;;;;;;5052770;28;20208;-72
2021/01/21 11:33:21;;;;;;;5.73;3.80;;;;;;;;;;5027828;28;20184;-71
2021/01/21 11:36:26;;;;;;;6.77;3.70;;;;;;;;;;5029292;28;20183;-72
2021/01/21 11:39:30;;;;;;;7.10;3.40;;;;;;;;;;5024697;28;20196;-72
2021/01/21 11:42:34;;;;;;;4.10;3.40;;;;;;;;;;5033000;28;20216;-71
2021/01/21 11:45:38;;;;;;;5.47;3.40;;;;;;;;;;5014237;28;20182;-71
2021/01/21 11:48:43;;;;;;;8.07;3.87;;;;;;;;;;5033074;28;20193;-71
2021/01/21 11:51:47;;;;;;;10.30;6.40;;;;;;;;;;5036975;28;20224;-72
2021/01/21 11:54:51;;;;;;;9.37;5.77;;;;;;;;;;5042234;28;20188;-71
2021/01/21 11:57:55;;;;;;;6.17;4.10;;;;;;;;;;5044493;28;20176;-71
2021/01/21 12:01:00;;;;;;;8.90;3.90;;;;;;;;;;5052269;28;20564;-71
2021/01/21 12:04:04;;;;;;;7.00;3.87;;;;;;;;;;5036987;28;20189;-71
2021/01/21 12:07:08;;;;;;;7.33;4.37;;;;;;;;;;5024519;28;20667;-71
2021/01/21 12:10:16;;;;;;;5.93;3.57;;;;;;;;;;5013251;28;20204;-73
2021/01/21 12:13:21;;;;;;;4.33;3.10;;;;;;;;;;5034115;28;20196;-71
2021/01/21 12:16:25;;;;;;;6.17;2.63;;;;;;;;;;5044619;28;20176;-72
2021/01/21 12:19:30;;;;;;;4.03;2.90;;;;;;;;;;5035440;28;20181;-71
2021/01/21 12:22:34;;;;;;;4.63;2.47;;;;;;;;;;5026856;28;20220;-71
2021/01/21 12:25:38;;;;;;;3.27;2.53;;;;;;;;;;5056319;28;20180;-72
2021/01/21 12:28:42;;;;;;;3.37;2.23;;;;;;;;;;5044103;28;20188;-71
2021/01/21 12:31:47;;;;;;;2.70;2.17;;;;;;;;;;5036219;28;20224;-71
2021/01/21 12:34:51;;;;;;;3.90;1.87;;;;;;;;;;4993384;28;20193;-73
2021/01/21 12:37:55;;;;;;;2.40;1.60;;;;;;;;;;5051634;28;20195;-72
2021/01/21 12:40:59;;;;;;;4.23;1.80;;;;;;;;;;5055990;28;20207;-72
2021/01/21 12:44:04;;;;;;;2.37;1.77;;;;;;;;;;5028809;28;20558;-71
2021/01/21 12:47:08;;;;;;;4.77;1.80;;;;;;;;;;5025040;28;20644;-71
2021/01/21 12:50:12;;;;;;;2.00;1.57;;;;;;;;;;5023960;28;20208;-72
2021/01/21 12:53:16;;;;;;;3.10;1.70;;;;;;;;;;5023960;28;20177;-73
2021/01/21 12:56:21;;;;;;;2.43;1.67;;;;;;;;;;5016296;28;20197;-73
2021/01/21 12:59:25;;;;;;;4.43;2.00;;;;;;;;;;5004115;28;20173;-73
2021/01/21 13:02:30;;;;;;;2.43;1.80;;;;;;;;;;5014861;28;20208;-73
2021/01/21 13:05:34;;;;;;;5.53;3.97;;;;;;;;;;5044787;28;20527;-72
2021/01/21 13:08:38;;;;;;;3.23;2.40;;;;;;;;;;5055725;28;20192;-73
2021/01/21 13:11:43;;;;;;;6.37;2.70;;;;;;;;;;5055346;28;20228;-73
2021/01/21 13:14:48;;;;;;;4.53;1.80;;;;;;;;;;5048021;28;20192;-72
2021/01/21 13:17:52;;;;;;;2.67;1.73;;;;;;;;;;5035654;28;20624;-73
2021/01/21 13:20:56;;;;;;;2.90;2.60;;;;;;;;;;5051861;28;20220;-72
2021/01/21 13:24:00;;;;;;;2.20;1.90;;;;;;;;;;5039888;28;20216;-73
2021/01/21 13:27:05;;;;;;;3.43;2.00;;;;;;;;;;5035202;28;20201;-72
2021/01/21 13:30:10;;;;;;;4.27;1.70;;;;;;;;;;5035284;28;20180;-73
2021/01/21 13:33:13;;;;;;;2.40;1.60;;;;;;;;;;5030728;28;20188;-72
2021/01/21 13:36:19;;;;;;;5.83;1.60;;;;;;;;;;5040900;28;20196;-72
2021/01/21 13:39:23;;;;;;;4.57;1.70;;;;;;;;;;5025475;28;20192;-72
2021/01/21 13:42:27;;;;;;;1.87;1.20;;;;;;;;;;5015971;28;20220;-71
2021/01/21 13:45:31;;;;;;;2.50;1.53;;;;;;;;;;5054710;28;20191;-73
2021/01/21 13:48:36;;;;;;;2.67;1.40;;;;;;;;;;5043232;28;20192;-73
2021/01/21 13:51:41;;;;;;;2.20;1.57;;;;;;;;;;5036223;28;20568;-71
2021/01/21 13:54:45;;;;;;;3.23;1.60;;;;;;;;;;5034877;28;20197;-71
2021/01/21 13:57:49;;;;;;;4.10;1.67;;;;;;;;;;5034832;28;20551;-73
2021/01/21 14:00:53;;;;;;;2.67;1.80;;;;;;;;;;5022463;28;20220;-72
2021/01/21 14:03:58;;;;;;;3.43;1.93;;;;;;;;;;5041804;28;20184;-71
2021/01/21 14:07:02;;;;;;;5.07;3.27;;;;;;;;;;5054020;28;20196;-71
2021/01/21 14:10:07;;;;;;;4.87;2.00;;;;;;;;;;5042152;28;20520;-72
2021/01/21 14:13:12;;;;;;;2.73;2.00;;;;;;;;;;5040681;28;20189;-71
2021/01/21 14:16:16;;;;;;;3.03;1.67;;;;;;;;;;5035139;28;20201;-71
2021/01/21 14:19:20;;;;;;;3.67;1.70;;;;;;;;;;5054354;28;20654;-73
2021/01/21 14:22:24;;;;;;;2.53;1.67;;;;;;;;;;5038052;28;20207;-72
2021/01/21 14:25:29;;;;;;;3.27;1.83;;;;;;;;;;5052614;28;20204;-71
2021/01/21 14:28:33;;;;;;;3.03;1.73;;;;;;;;;;5030309;28;20650;-71
2021/01/21 14:31:38;;;;;;;3.90;1.90;;;;;;;;;;5035154;28;20223;-70
2021/01/21 14:34:42;;;;;;;2.47;1.80;;;;;;;;;;5014634;28;20181;-71
2021/01/21 14:37:46;;;;;;;5.00;1.80;;;;;;;;;;5018521;28;20200;-70
2021/01/21 14:40:50;;;;;;;2.80;1.77;;;;;;;;;;5050185;28;20212;-71
2021/01/21 14:43:55;;;;;;;2.43;1.87;;;;;;;;;;5039917;28;20192;-70
2021/01/21 14:46:59;;;;;;;4.43;2.00;;;;;;;;;;5021483;28;20193;-71
2021/01/21 14:50:05;;;;;;;2.70;1.90;;;;;;;;;;5048958;28;20188;-70
2021/01/21 14:53:10;;;;;;;4.70;2.43;;;;;;;;;;5034754;28;20185;-70
2021/01/21 14:56:14;;;;;;;7.70;2.40;;;;;;;;;;5014073;28;20629;-71
2021/01/21 14:59:18;;;;;;;3.33;2.13;;;;;;;;;;5043252;28;20650;-70
2021/01/21 15:02:22;;;;;;;3.37;2.40;;;;;;;;;;5021552;28;20212;-71
2021/01/21 15:05:26;;;;;;;6.83;2.37;;;;;;;;;;5025383;28;20191;-70
2021/01/21 15:08:31;;;;;;;4.37;2.40;;;;;;;;;;5041317;28;20172;-71
2021/01/21 15:11:34;;;;;;;5.97;2.80;;;;;;;;;;5037850;28;20687;-70
2021/01/21 15:14:39;;;;;;;3.63;2.30;;;;;;;;;;5035798;28;20192;-70
2021/01/21 15:17:43;;;;;;;4.07;2.97;;;;;;;;;;5013490;28;20209;-71
2021/01/21 15:20:49;;;;;;;5.17;2.73;;;;;;;;;;5047053;28;20698;-70
2021/01/21 15:23:53;;;;;;;5.27;2.67;;;;;;;;;;5048560;28;20200;-70
2021/01/21 15:26:57;;;;;;;4.83;3.07;;;;;;;;;;5050160;28;20188;-70
2021/01/21 15:30:01;;;;;;;5.77;3.60;;;;;;;;;;5028909;28;20192;-70
2021/01/21 15:33:06;;;;;;;4.67;3.00;;;;;;;;;;5021383;28;20189;-70
2021/01/21 15:36:11;;;;;;;7.07;3.33;;;;;;;;;;5021112;28;20181;-70
2021/01/21 15:39:15;;;;;;;5.30;3.30;;;;;;;;;;5021167;28;20180;-71
2021/01/21 15:42:19;;;;;;;5.23;3.30;;;;;;;;;;5033914;28;20212;-70
2021/01/21 15:45:25;;;;;;;3.73;3.10;;;;;;;;;;5033328;28;20189;-72
2021/01/21 15:48:29;;;;;;;5.97;4.00;;;;;;;;;;5031403;28;20188;-70
2021/01/21 15:51:35;;;;;;;5.70;3.80;;;;;;;;;;5040406;28;20559;-71
2021/01/21 15:54:39;;;;;;;5.63;4.03;;;;;;;;;;5033997;28;20564;-70
2021/01/21 15:57:43;;;;;;;78.87;30.70;;;;;;;;;;5048144;28;20188;-70
2021/01/21 16:00:47;;;;;;;17.23;7.67;;;;;;;;;;5052594;28;20216;-71
2021/01/21 16:03:51;;;;;;;5.77;3.90;;;;;;;;;;5031657;28;20200;-70
2021/01/21 16:06:56;;;;;;;6.40;4.27;;;;;;;;;;5009680;28;20193;-71
2021/01/21 16:10:00;;;;;;;61.23;23.50;;;;;;;;;;5021463;28;20197;-70
2021/01/21 16:13:05;;;;;;;63.13;23.37;;;;;;;;;;5031505;28;20556;-71
2021/01/21 16:16:08;;;;;;;27.73;10.77;;;;;;;;;;5025464;28;20188;-70
2021/01/21 16:19:13;;;;;;;8.83;4.47;;;;;;;;;;5032143;28;20192;-70
2021/01/21 16:22:17;;;;;;;8.23;3.50;;;;;;;;;;5012894;28;20217;-71
2021/01/21 16:25:21;;;;;;;5.87;3.30;;;;;;;;;;5022257;28;20201;-69
2021/01/21 16:28:25;;;;;;;7.93;3.63;;;;;;;;;;5034009;28;20181;-70
2021/01/21 16:31:29;;;;;;;7.43;3.20;;;;;;;;;;5038303;28;20219;-69
2021/01/21 16:34:33;;;;;;;5.67;3.37;;;;;;;;;;5052072;28;20196;-71
2021/01/21 16:37:38;;;;;;;4.30;3.30;;;;;;;;;;5043513;28;20184;-69
2021/01/21 16:40:43;;;;;;;5.90;3.97;;;;;;;;;;5020311;28;20212;-70
2021/01/21 16:43:47;;;;;;;11.17;6.87;;;;;;;;;;5035858;28;20616;-69
2021/01/21 16:46:51;;;;;;;7.47;5.37;;;;;;;;;;5015980;28;20201;-70
2021/01/21 16:49:57;;;;;;;4.97;3.30;;;;;;;;;;5013380;28;20200;-69
2021/01/21 16:53:02;;;;;;;3.70;3.07;;;;;;;;;;5035582;28;20212;-70
2021/01/21 16:56:06;;;;;;;5.70;3.50;;;;;;;;;;5049631;28;20208;-69
2021/01/21 16:59:10;;;;;;;4.60;3.23;;;;;;;;;;5041201;28;20207;-70
2021/01/21 17:02:16;;;;;;;6.40;3.50;;;;;;;;;;5016757;28;20217;-69
2021/01/21 17:05:20;;;;;;;4.03;3.10;;;;;;;;;;5055989;28;20180;-71
2021/01/21 17:08:24;;;;;;;5.33;3.83;;;;;;;;;;5055736;28;20180;-71
2021/01/21 17:11:29;;;;;;;4.67;3.30;;;;;;;;;;5037140;28;20213;-71
2021/01/21 17:14:35;;;;;;;4.73;3.50;;;;;;;;;;5036857;28;20196;-70
2021/01/21 17:17:39;;;;;;;5.87;3.67;;;;;;;;;;5039252;28;20193;-70
2021/01/21 17:20:43;;;;;;;4.27;2.80;;;;;;;;;;5038035;28;20578;-70
2021/01/21 17:23:47;;;;;;;6.00;3.40;;;;;;;;;;5042408;28;20222;-71
2021/01/21 17:26:53;;;;;;;7.50;3.60;;;;;;;;;;5025054;28;20207;-70
2021/01/21 17:29:57;;;;;;;4.90;3.43;;;;;;;;;;5024032;28;20208;-70
2021/01/21 17:33:01;;;;;;;6.00;3.80;;;;;;;;;;5022857;28;20216;-69
2021/01/21 17:36:06;;;;;;;5.80;3.73;;;;;;;;;;5022885;28;20181;-71
2021/01/21 17:39:10;;;;;;;5.43;4.00;;;;;;;;;;5048946;28;20192;-70
2021/01/21 17:42:15;;;;;;;6.53;3.97;;;;;;;;;;5025164;28;20246;-70
2021/01/21 17:45:19;;;;;;;6.27;4.00;;;;;;;;;;5017426;28;20201;-71
2021/01/21 17:48:23;;;;;;;7.47;3.93;;;;;;;;;;5014660;28;20185;-71
2021/01/21 17:51:27;;;;;;;4.13;3.53;;;;;;;;;;5014945;28;20217;-71
2021/01/21 17:54:32;;;;;;;5.30;3.93;;;;;;;;;;5032691;28;20663;-72
2021/01/21 17:57:36;;;;;;;7.77;4.47;;;;;;;;;;5016110;28;20177;-71
2021/01/21 18:00:43;;;;;;;7.67;4.60;;;;;;;;;;5022841;28;20220;-71
2021/01/21 18:03:47;;;;;;;6.90;4.60;;;;;;;;;;5034720;28;20197;-71
2021/01/21 18:06:51;;;;;;;5.93;4.37;;;;;;;;;;5051935;28;20188;-71
2021/01/21 18:09:55;;;;;;;7.50;4.93;;;;;;;;;;5033519;28;20188;-71
2021/01/21 18:13:00;;;;;;;8.80;5.17;;;;;;;;;;5040388;28;20208;-71
2021/01/21 18:16:04;;;;;;;13.30;5.20;;;;;;;;;;5041710;28;20187;-71
2021/01/21 18:19:09;;;;;;;6.77;4.70;;;;;;;;;;5054448;28;20180;-71
2021/01/21 18:22:13;;;;;;;9.47;5.53;;;;;;;;;;5049441;28;20208;-71
2021/01/21 18:25:19;;;;;;;8.53;4.97;;;;;;;;;;5031981;28;20574;-71
2021/01/21 18:28:23;;;;;;;8.87;5.83;;;;;;;;;;5041809;28;20184;-71
2021/01/21 18:31:29;;;;;;;12.77;9.97;;;;;;;;;;5014403;28;20696;-72
2021/01/21 18:34:33;;;;;;;12.50;7.20;;;;;;;;;;5028722;28;20180;-71
2021/01/21 18:37:38;;;;;;;12.60;7.87;;;;;;;;;;5044238;28;20651;-70